sensor_id;sensor_type;location;lat;lon;timestamp;temperature;humidity
13198;DHT22;6664;52.514;13.440;2023-05-07T00:01:04;9.70;34.70
13198;DHT22;6664;52.514;13.440;2023-05-07T00:03:53;9.60;34.60
13198;DHT22;6664;52.514;13.440;2023-05-07T00:06:41;9.60;34.00
13198;DHT22;6664;52.514;13.440;2023-05-07T00:09:29;9.60;33.90
13198;DHT22;6664;52.514;13.440;2023-05-07T00:12:15;9.70;33.70
13198;DHT22;6664;52.514;13.440;2023-05-07T00:15:02;9.70;33.40
13198;DHT22;6664;52.514;13.440;2023-05-07T00:17:47;9.70;33.20
13198;DHT22;6664;52.514;13.440;2023-05-07T00:20:35;9.60;33.30
13198;DHT22;6664;52.514;13.440;2023-05-07T00:23:22;9.60;33.60
13198;DHT22;6664;52.514;13.440;2023-05-07T00:26:07;9.70;33.30
13198;DHT22;6664;52.514;13.440;2023-05-07T00:28:53;9.70;33.10
13198;DHT22;6664;52.514;13.440;2023-05-07T00:31:40;9.70;33.00
13198;DHT22;6664;52.514;13.440;2023-05-07T00:34:26;9.70;32.80
13198;DHT22;6664;52.514;13.440;2023-05-07T00:37:11;9.60;33.20
13198;DHT22;6664;52.514;13.440;2023-05-07T00:39:57;9.50;33.30
13198;DHT22;6664;52.514;13.440;2023-05-07T00:42:42;9.30;33.60
13198;DHT22;6664;52.514;13.440;2023-05-07T00:45:35;9.00;34.20
13198;DHT22;6664;52.514;13.440;2023-05-07T00:48:21;8.90;35.50
13198;DHT22;6664;52.514;13.440;2023-05-07T00:51:06;9.00;36.10
13198;DHT22;6664;52.514;13.440;2023-05-07T00:53:52;9.00;36.10
13198;DHT22;6664;52.514;13.440;2023-05-07T00:56:38;9.10;36.10
13198;DHT22;6664;52.514;13.440;2023-05-07T00:59:25;9.10;35.90
13198;DHT22;6664;52.514;13.440;2023-05-07T01:02:11;9.10;36.00
13198;DHT22;6664;52.514;13.440;2023-05-07T01:04:56;9.30;35.70
13198;DHT22;6664;52.514;13.440;2023-05-07T01:07:45;9.30;35.20
13198;DHT22;6664;52.514;13.440;2023-05-07T01:10:31;9.30;35.00
13198;DHT22;6664;52.514;13.440;2023-05-07T01:13:18;9.30;34.80
13198;DHT22;6664;52.514;13.440;2023-05-07T01:16:04;9.40;34.50
13198;DHT22;6664;52.514;13.440;2023-05-07T01:18:50;9.40;34.20
13198;DHT22;6664;52.514;13.440;2023-05-07T01:21:37;9.40;34.20
13198;DHT22;6664;52.514;13.440;2023-05-07T01:24:24;9.50;33.90
13198;DHT22;6664;52.514;13.440;2023-05-07T01:27:09;9.50;33.70
13198;DHT22;6664;52.514;13.440;2023-05-07T01:29:54;9.50;33.80
13198;DHT22;6664;52.514;13.440;2023-05-07T01:32:49;9.50;33.60
13198;DHT22;6664;52.514;13.440;2023-05-07T01:35:39;9.50;33.30
13198;DHT22;6664;52.514;13.440;2023-05-07T01:38:27;9.50;33.20
13198;DHT22;6664;52.514;13.440;2023-05-07T01:41:15;9.40;32.90
13198;DHT22;6664;52.514;13.440;2023-05-07T01:44:03;9.50;33.00
13198;DHT22;6664;52.514;13.440;2023-05-07T01:46:49;9.50;32.70
13198;DHT22;6664;52.514;13.440;2023-05-07T01:49:35;9.50;32.60
13198;DHT22;6664;52.514;13.440;2023-05-07T01:52:23;9.40;32.40
13198;DHT22;6664;52.514;13.440;2023-05-07T01:55:12;9.50;32.30
13198;DHT22;6664;52.514;13.440;2023-05-07T01:58:01;9.50;32.30
13198;DHT22;6664;52.514;13.440;2023-05-07T02:00:46;9.50;32.10
13198;DHT22;6664;52.514;13.440;2023-05-07T02:03:32;9.50;32.00
13198;DHT22;6664;52.514;13.440;2023-05-07T02:06:18;9.50;31.80
13198;DHT22;6664;52.514;13.440;2023-05-07T02:09:05;9.60;31.90
13198;DHT22;6664;52.514;13.440;2023-05-07T02:11:50;9.50;31.60
13198;DHT22;6664;52.514;13.440;2023-05-07T02:14:35;9.50;31.70
13198;DHT22;6664;52.514;13.440;2023-05-07T02:17:21;9.50;31.90
13198;DHT22;6664;52.514;13.440;2023-05-07T02:20:07;9.50;31.60
13198;DHT22;6664;52.514;13.440;2023-05-07T02:22:58;9.50;31.50
13198;DHT22;6664;52.514;13.440;2023-05-07T02:25:44;9.50;31.50
13198;DHT22;6664;52.514;13.440;2023-05-07T02:28:33;9.50;31.30
13198;DHT22;6664;52.514;13.440;2023-05-07T02:31:20;9.50;31.20
13198;DHT22;6664;52.514;13.440;2023-05-07T02:34:06;9.40;31.10
13198;DHT22;6664;52.514;13.440;2023-05-07T02:36:54;9.50;31.60
13198;DHT22;6664;52.514;13.440;2023-05-07T02:39:40;9.40;31.00
13198;DHT22;6664;52.514;13.440;2023-05-07T02:42:26;9.50;31.20
13198;DHT22;6664;52.514;13.440;2023-05-07T02:45:11;9.40;31.00
13198;DHT22;6664;52.514;13.440;2023-05-07T02:47:57;9.50;31.10
13198;DHT22;6664;52.514;13.440;2023-05-07T02:50:42;9.50;31.10
13198;DHT22;6664;52.514;13.440;2023-05-07T02:53:28;9.50;31.10
13198;DHT22;6664;52.514;13.440;2023-05-07T02:56:16;9.50;31.10
13198;DHT22;6664;52.514;13.440;2023-05-07T02:59:02;9.50;31.00
13198;DHT22;6664;52.514;13.440;2023-05-07T03:01:47;9.50;31.10
13198;DHT22;6664;52.514;13.440;2023-05-07T03:04:33;9.50;31.00
13198;DHT22;6664;52.514;13.440;2023-05-07T03:07:19;9.40;30.60
13198;DHT22;6664;52.514;13.440;2023-05-07T03:10:05;9.40;30.50
13198;DHT22;6664;52.514;13.440;2023-05-07T03:12:51;9.40;30.40
13198;DHT22;6664;52.514;13.440;2023-05-07T03:15:39;9.50;30.50
13198;DHT22;6664;52.514;13.440;2023-05-07T03:18:24;9.50;30.60
13198;DHT22;6664;52.514;13.440;2023-05-07T03:21:10;9.50;30.00
13198;DHT22;6664;52.514;13.440;2023-05-07T03:23:55;9.50;30.00
13198;DHT22;6664;52.514;13.440;2023-05-07T03:26:41;9.40;30.40
13198;DHT22;6664;52.514;13.440;2023-05-07T03:29:26;9.50;30.50
13198;DHT22;6664;52.514;13.440;2023-05-07T03:32:12;9.40;30.50
13198;DHT22;6664;52.514;13.440;2023-05-07T03:34:57;9.40;31.00
13198;DHT22;6664;52.514;13.440;2023-05-07T03:37:45;9.40;30.90
13198;DHT22;6664;52.514;13.440;2023-05-07T03:40:31;9.40;30.80
13198;DHT22;6664;52.514;13.440;2023-05-07T03:43:16;9.40;31.00
13198;DHT22;6664;52.514;13.440;2023-05-07T03:46:03;9.50;31.00
13198;DHT22;6664;52.514;13.440;2023-05-07T03:48:49;9.40;30.90
13198;DHT22;6664;52.514;13.440;2023-05-07T03:51:34;9.40;31.00
13198;DHT22;6664;52.514;13.440;2023-05-07T03:54:23;9.40;31.00
13198;DHT22;6664;52.514;13.440;2023-05-07T03:57:08;9.40;31.00
13198;DHT22;6664;52.514;13.440;2023-05-07T03:59:54;9.50;30.90
13198;DHT22;6664;52.514;13.440;2023-05-07T04:02:42;9.40;31.00
13198;DHT22;6664;52.514;13.440;2023-05-07T04:05:30;9.40;31.00
13198;DHT22;6664;52.514;13.440;2023-05-07T04:08:18;9.50;30.80
13198;DHT22;6664;52.514;13.440;2023-05-07T04:11:03;9.50;30.80
13198;DHT22;6664;52.514;13.440;2023-05-07T04:13:49;9.60;30.40
13198;DHT22;6664;52.514;13.440;2023-05-07T04:16:35;9.60;30.20
13198;DHT22;6664;52.514;13.440;2023-05-07T04:19:20;9.60;30.10
13198;DHT22;6664;52.514;13.440;2023-05-07T04:22:06;9.60;30.00
13198;DHT22;6664;52.514;13.440;2023-05-07T04:24:52;9.60;29.80
13198;DHT22;6664;52.514;13.440;2023-05-07T04:27:40;9.60;30.20
13198;DHT22;6664;52.514;13.440;2023-05-07T04:30:26;9.60;29.50
13198;DHT22;6664;52.514;13.440;2023-05-07T04:33:11;9.70;29.20
13198;DHT22;6664;52.514;13.440;2023-05-07T04:35:58;9.70;28.80
13198;DHT22;6664;52.514;13.440;2023-05-07T04:38:48;9.80;28.70
13198;DHT22;6664;52.514;13.440;2023-05-07T04:41:36;9.80;28.00
13198;DHT22;6664;52.514;13.440;2023-05-07T04:44:24;9.80;27.70
13198;DHT22;6664;52.514;13.440;2023-05-07T04:47:10;9.90;27.80
13198;DHT22;6664;52.514;13.440;2023-05-07T04:49:57;9.90;27.60
13198;DHT22;6664;52.514;13.440;2023-05-07T04:52:44;10.00;26.50
13198;DHT22;6664;52.514;13.440;2023-05-07T04:55:30;10.10;26.30
13198;DHT22;6664;52.514;13.440;2023-05-07T04:58:16;10.10;25.90
13198;DHT22;6664;52.514;13.440;2023-05-07T05:01:01;10.20;25.60
13198;DHT22;6664;52.514;13.440;2023-05-07T05:03:47;10.30;25.30
13198;DHT22;6664;52.514;13.440;2023-05-07T05:06:34;10.40;24.80
13198;DHT22;6664;52.514;13.440;2023-05-07T05:09:19;10.40;24.30
13198;DHT22;6664;52.514;13.440;2023-05-07T05:12:05;10.40;24.00
13198;DHT22;6664;52.514;13.440;2023-05-07T05:14:52;10.50;23.90
13198;DHT22;6664;52.514;13.440;2023-05-07T05:17:38;10.60;23.50
13198;DHT22;6664;52.514;13.440;2023-05-07T05:20:23;10.60;22.70
13198;DHT22;6664;52.514;13.440;2023-05-07T05:23:11;10.70;22.70
13198;DHT22;6664;52.514;13.440;2023-05-07T05:25:57;10.60;22.80
13198;DHT22;6664;52.514;13.440;2023-05-07T05:28:43;10.60;22.70
13198;DHT22;6664;52.514;13.440;2023-05-07T05:31:29;10.80;22.60
13198;DHT22;6664;52.514;13.440;2023-05-07T05:34:17;10.80;22.50
13198;DHT22;6664;52.514;13.440;2023-05-07T05:37:04;10.90;22.60
13198;DHT22;6664;52.514;13.440;2023-05-07T05:39:52;11.00;21.90
13198;DHT22;6664;52.514;13.440;2023-05-07T05:42:42;10.90;22.10
13198;DHT22;6664;52.514;13.440;2023-05-07T05:45:27;11.10;21.60
13198;DHT22;6664;52.514;13.440;2023-05-07T05:48:13;11.20;21.30
13198;DHT22;6664;52.514;13.440;2023-05-07T05:50:58;11.30;21.00
13198;DHT22;6664;52.514;13.440;2023-05-07T05:53:45;11.40;20.50
13198;DHT22;6664;52.514;13.440;2023-05-07T05:56:31;11.30;20.70
13198;DHT22;6664;52.514;13.440;2023-05-07T05:59:17;11.40;20.50
13198;DHT22;6664;52.514;13.440;2023-05-07T06:02:03;11.40;20.30
13198;DHT22;6664;52.514;13.440;2023-05-07T06:04:50;11.60;19.90
13198;DHT22;6664;52.514;13.440;2023-05-07T06:07:35;11.50;19.60
13198;DHT22;6664;52.514;13.440;2023-05-07T06:10:20;11.50;19.90
13198;DHT22;6664;52.514;13.440;2023-05-07T06:13:06;11.50;19.60
13198;DHT22;6664;52.514;13.440;2023-05-07T06:15:54;11.40;19.70
13198;DHT22;6664;52.514;13.440;2023-05-07T06:18:39;11.70;19.20
13198;DHT22;6664;52.514;13.440;2023-05-07T06:21:27;11.70;19.20
13198;DHT22;6664;52.514;13.440;2023-05-07T06:24:12;11.90;18.80
13198;DHT22;6664;52.514;13.440;2023-05-07T06:27:01;12.00;18.90
13198;DHT22;6664;52.514;13.440;2023-05-07T06:29:52;12.20;18.30
13198;DHT22;6664;52.514;13.440;2023-05-07T06:32:40;12.20;18.30
13198;DHT22;6664;52.514;13.440;2023-05-07T06:35:28;12.40;17.50
13198;DHT22;6664;52.514;13.440;2023-05-07T06:38:18;12.40;17.50
13198;DHT22;6664;52.514;13.440;2023-05-07T06:41:06;12.40;17.00
13198;DHT22;6664;52.514;13.440;2023-05-07T06:43:52;12.50;16.90
13198;DHT22;6664;52.514;13.440;2023-05-07T06:46:39;12.60;16.40
13198;DHT22;6664;52.514;13.440;2023-05-07T06:49:25;12.90;16.30
13198;DHT22;6664;52.514;13.440;2023-05-07T06:52:11;12.80;16.00
13198;DHT22;6664;52.514;13.440;2023-05-07T06:54:56;13.10;15.20
13198;DHT22;6664;52.514;13.440;2023-05-07T06:57:44;13.10;15.00
13198;DHT22;6664;52.514;13.440;2023-05-07T07:00:29;12.90;15.10
13198;DHT22;6664;52.514;13.440;2023-05-07T07:03:18;12.70;15.20
13198;DHT22;6664;52.514;13.440;2023-05-07T07:06:06;12.70;15.70
13198;DHT22;6664;52.514;13.440;2023-05-07T07:08:51;12.50;15.90
13198;DHT22;6664;52.514;13.440;2023-05-07T07:11:39;12.50;15.90
13198;DHT22;6664;52.514;13.440;2023-05-07T07:14:24;12.10;16.30
13198;DHT22;6664;52.514;13.440;2023-05-07T07:17:14;12.00;16.70
13198;DHT22;6664;52.514;13.440;2023-05-07T07:20:00;11.90;17.20
13198;DHT22;6664;52.514;13.440;2023-05-07T07:22:48;11.80;17.50
13198;DHT22;6664;52.514;13.440;2023-05-07T07:25:33;11.70;18.30
13198;DHT22;6664;52.514;13.440;2023-05-07T07:28:21;11.90;17.90
13198;DHT22;6664;52.514;13.440;2023-05-07T07:31:11;12.00;17.60
13198;DHT22;6664;52.514;13.440;2023-05-07T07:33:59;11.70;17.90
13198;DHT22;6664;52.514;13.440;2023-05-07T07:36:45;11.60;17.60
13198;DHT22;6664;52.514;13.440;2023-05-07T07:39:34;11.50;17.90
13198;DHT22;6664;52.514;13.440;2023-05-07T07:42:22;11.60;17.80
13198;DHT22;6664;52.514;13.440;2023-05-07T07:45:08;11.60;18.10
13198;DHT22;6664;52.514;13.440;2023-05-07T07:47:54;11.50;18.10
13198;DHT22;6664;52.514;13.440;2023-05-07T07:50:42;11.40;18.50
13198;DHT22;6664;52.514;13.440;2023-05-07T07:53:30;11.30;18.80
13198;DHT22;6664;52.514;13.440;2023-05-07T07:56:16;11.30;19.00
13198;DHT22;6664;52.514;13.440;2023-05-07T07:59:02;11.30;18.70
13198;DHT22;6664;52.514;13.440;2023-05-07T08:01:51;11.30;18.60
13198;DHT22;6664;52.514;13.440;2023-05-07T08:04:41;11.30;18.40
13198;DHT22;6664;52.514;13.440;2023-05-07T08:07:28;11.30;18.30
13198;DHT22;6664;52.514;13.440;2023-05-07T08:10:13;11.40;17.80
13198;DHT22;6664;52.514;13.440;2023-05-07T08:13:06;11.50;18.00
13198;DHT22;6664;52.514;13.440;2023-05-07T08:15:57;11.60;17.90
13198;DHT22;6664;52.514;13.440;2023-05-07T08:18:42;11.60;17.70
13198;DHT22;6664;52.514;13.440;2023-05-07T08:21:28;11.70;17.70
13198;DHT22;6664;52.514;13.440;2023-05-07T08:24:19;11.90;16.50
13198;DHT22;6664;52.514;13.440;2023-05-07T08:27:04;12.10;16.30
13198;DHT22;6664;52.514;13.440;2023-05-07T08:29:50;12.30;15.80
13198;DHT22;6664;52.514;13.440;2023-05-07T08:32:39;12.30;15.40
13198;DHT22;6664;52.514;13.440;2023-05-07T08:35:25;12.30;15.40
13198;DHT22;6664;52.514;13.440;2023-05-07T08:38:10;12.40;15.30
13198;DHT22;6664;52.514;13.440;2023-05-07T08:40:56;12.70;14.90
13198;DHT22;6664;52.514;13.440;2023-05-07T08:43:41;12.80;14.10
13198;DHT22;6664;52.514;13.440;2023-05-07T08:46:31;13.00;14.00
13198;DHT22;6664;52.514;13.440;2023-05-07T08:49:17;13.20;13.70
13198;DHT22;6664;52.514;13.440;2023-05-07T08:52:03;13.40;13.30
13198;DHT22;6664;52.514;13.440;2023-05-07T08:54:49;13.60;12.50
13198;DHT22;6664;52.514;13.440;2023-05-07T08:57:34;13.70;11.70
13198;DHT22;6664;52.514;13.440;2023-05-07T09:00:24;14.00;11.40
13198;DHT22;6664;52.514;13.440;2023-05-07T09:03:12;14.30;10.80
13198;DHT22;6664;52.514;13.440;2023-05-07T09:05:59;14.10;11.20
13198;DHT22;6664;52.514;13.440;2023-05-07T09:08:54;14.00;10.60
13198;DHT22;6664;52.514;13.440;2023-05-07T09:11:45;14.30;10.80
13198;DHT22;6664;52.514;13.440;2023-05-07T09:14:33;14.30;10.90
13198;DHT22;6664;52.514;13.440;2023-05-07T09:17:18;14.30;10.50
13198;DHT22;6664;52.514;13.440;2023-05-07T09:20:08;14.60;10.10
13198;DHT22;6664;52.514;13.440;2023-05-07T09:22:56;14.80;9.00
13198;DHT22;6664;52.514;13.440;2023-05-07T09:25:41;14.90;8.90
13198;DHT22;6664;52.514;13.440;2023-05-07T09:28:27;14.80;8.70
13198;DHT22;6664;52.514;13.440;2023-05-07T09:31:12;14.70;8.60
13198;DHT22;6664;52.514;13.440;2023-05-07T09:33:58;14.80;9.20
13198;DHT22;6664;52.514;13.440;2023-05-07T09:36:44;15.00;9.20
13198;DHT22;6664;52.514;13.440;2023-05-07T09:39:44;15.60;7.80
13198;DHT22;6664;52.514;13.440;2023-05-07T09:42:30;15.90;7.10
13198;DHT22;6664;52.514;13.440;2023-05-07T09:45:28;15.90;6.30
13198;DHT22;6664;52.514;13.440;2023-05-07T09:48:16;15.50;6.40
13198;DHT22;6664;52.514;13.440;2023-05-07T09:51:11;15.70;6.80
13198;DHT22;6664;52.514;13.440;2023-05-07T09:53:57;16.10;5.40
13198;DHT22;6664;52.514;13.440;2023-05-07T09:56:45;16.40;5.20
13198;DHT22;6664;52.514;13.440;2023-05-07T09:59:37;16.70;3.70
13198;DHT22;6664;52.514;13.440;2023-05-07T10:02:25;16.90;3.70
13198;DHT22;6664;52.514;13.440;2023-05-07T10:05:16;17.20;3.20
13198;DHT22;6664;52.514;13.440;2023-05-07T10:08:03;16.90;3.20
13198;DHT22;6664;52.514;13.440;2023-05-07T10:10:49;17.20;2.60
13198;DHT22;6664;52.514;13.440;2023-05-07T10:13:35;17.30;2.30
13198;DHT22;6664;52.514;13.440;2023-05-07T10:16:21;17.50;2.00
13198;DHT22;6664;52.514;13.440;2023-05-07T10:19:07;17.40;1.30
13198;DHT22;6664;52.514;13.440;2023-05-07T10:21:59;17.20;1.00
13198;DHT22;6664;52.514;13.440;2023-05-07T10:24:48;17.00;1.10
13198;DHT22;6664;52.514;13.440;2023-05-07T10:27:35;16.80;2.00
13198;DHT22;6664;52.514;13.440;2023-05-07T10:33:25;17.30;1.10
13198;DHT22;6664;52.514;13.440;2023-05-07T10:36:12;17.90;1.00
13198;DHT22;6664;52.514;13.440;2023-05-07T10:38:58;18.10;1.00
13198;DHT22;6664;52.514;13.440;2023-05-07T10:41:48;18.10;1.00
13198;DHT22;6664;52.514;13.440;2023-05-07T10:44:33;17.90;1.00
13198;DHT22;6664;52.514;13.440;2023-05-07T10:47:22;18.00;1.00
13198;DHT22;6664;52.514;13.440;2023-05-07T10:53:26;18.40;1.00
13198;DHT22;6664;52.514;13.440;2023-05-07T11:02:06;18.40;1.00
13198;DHT22;6664;52.514;13.440;2023-05-07T11:05:19;18.10;1.00
13198;DHT22;6664;52.514;13.440;2023-05-07T11:08:05;17.80;1.00
13198;DHT22;6664;52.514;13.440;2023-05-07T11:10:52;17.90;1.00
13198;DHT22;6664;52.514;13.440;2023-05-07T11:16:28;18.10;1.00
13198;DHT22;6664;52.514;13.440;2023-05-07T11:19:15;18.00;1.00
13198;DHT22;6664;52.514;13.440;2023-05-07T11:22:01;18.30;1.00
13198;DHT22;6664;52.514;13.440;2023-05-07T11:24:46;18.60;1.00
13198;DHT22;6664;52.514;13.440;2023-05-07T11:27:33;18.90;1.00
13198;DHT22;6664;52.514;13.440;2023-05-07T11:30:18;19.50;1.00
13198;DHT22;6664;52.514;13.440;2023-05-07T11:33:04;19.20;1.00
13198;DHT22;6664;52.514;13.440;2023-05-07T11:35:52;19.10;1.00
13198;DHT22;6664;52.514;13.440;2023-05-07T11:38:38;19.00;1.00
13198;DHT22;6664;52.514;13.440;2023-05-07T11:41:35;18.70;1.00
13198;DHT22;6664;52.514;13.440;2023-05-07T11:44:21;19.00;1.00
13198;DHT22;6664;52.514;13.440;2023-05-07T11:47:10;18.80;1.00
13198;DHT22;6664;52.514;13.440;2023-05-07T11:50:04;19.10;1.00
13198;DHT22;6664;52.514;13.440;2023-05-07T11:52:53;18.90;1.00
13198;DHT22;6664;52.514;13.440;2023-05-07T11:55:38;18.80;1.00
13198;DHT22;6664;52.514;13.440;2023-05-07T11:58:26;19.20;1.00
13198;DHT22;6664;52.514;13.440;2023-05-07T12:01:13;19.10;1.00
13198;DHT22;6664;52.514;13.440;2023-05-07T12:04:03;19.40;1.00
13198;DHT22;6664;52.514;13.440;2023-05-07T12:06:48;19.60;1.00
13198;DHT22;6664;52.514;13.440;2023-05-07T12:09:36;19.80;1.00
13198;DHT22;6664;52.514;13.440;2023-05-07T12:12:22;20.40;1.00
13198;DHT22;6664;52.514;13.440;2023-05-07T12:15:16;20.60;1.00
13198;DHT22;6664;52.514;13.440;2023-05-07T12:18:01;20.60;1.00
13198;DHT22;6664;52.514;13.440;2023-05-07T12:20:49;20.80;1.00
13198;DHT22;6664;52.514;13.440;2023-05-07T12:23:38;21.00;1.00
13198;DHT22;6664;52.514;13.440;2023-05-07T12:26:26;21.30;1.00
13198;DHT22;6664;52.514;13.440;2023-05-07T12:29:13;20.90;1.00
13198;DHT22;6664;52.514;13.440;2023-05-07T12:31:59;22.60;1.00
13198;DHT22;6664;52.514;13.440;2023-05-07T12:34:52;28.80;1.00
13198;DHT22;6664;52.514;13.440;2023-05-07T12:37:37;33.40;1.00
13198;DHT22;6664;52.514;13.440;2023-05-07T12:40:23;35.70;1.00
13198;DHT22;6664;52.514;13.440;2023-05-07T12:43:19;34.10;1.00
13198;DHT22;6664;52.514;13.440;2023-05-07T12:46:10;36.70;1.00
13198;DHT22;6664;52.514;13.440;2023-05-07T12:48:55;34.60;1.00
13198;DHT22;6664;52.514;13.440;2023-05-07T12:51:41;37.70;1.00
13198;DHT22;6664;52.514;13.440;2023-05-07T12:54:34;35.20;1.00
13198;DHT22;6664;52.514;13.440;2023-05-07T12:57:24;33.00;1.00
13198;DHT22;6664;52.514;13.440;2023-05-07T13:00:10;28.80;1.00
13198;DHT22;6664;52.514;13.440;2023-05-07T13:02:56;27.40;1.00
13198;DHT22;6664;52.514;13.440;2023-05-07T13:05:41;27.30;1.00
13198;DHT22;6664;52.514;13.440;2023-05-07T13:08:38;32.30;1.00
13198;DHT22;6664;52.514;13.440;2023-05-07T13:11:28;33.30;1.00
13198;DHT22;6664;52.514;13.440;2023-05-07T13:14:13;33.40;1.00
13198;DHT22;6664;52.514;13.440;2023-05-07T13:17:02;39.00;1.00
13198;DHT22;6664;52.514;13.440;2023-05-07T13:19:47;40.50;1.00
13198;DHT22;6664;52.514;13.440;2023-05-07T13:22:33;39.80;1.00
13198;DHT22;6664;52.514;13.440;2023-05-07T13:25:18;34.50;1.00
13198;DHT22;6664;52.514;13.440;2023-05-07T13:28:04;30.90;1.00
13198;DHT22;6664;52.514;13.440;2023-05-07T13:30:55;28.80;1.00
13198;DHT22;6664;52.514;13.440;2023-05-07T13:33:41;37.90;1.00
13198;DHT22;6664;52.514;13.440;2023-05-07T13:36:26;34.80;1.00
13198;DHT22;6664;52.514;13.440;2023-05-07T13:39:12;30.30;1.00
13198;DHT22;6664;52.514;13.440;2023-05-07T13:41:57;28.10;1.00
13198;DHT22;6664;52.514;13.440;2023-05-07T13:44:43;26.30;1.00
13198;DHT22;6664;52.514;13.440;2023-05-07T13:47:31;27.30;1.00
13198;DHT22;6664;52.514;13.440;2023-05-07T13:50:16;35.60;1.00
13198;DHT22;6664;52.514;13.440;2023-05-07T13:53:04;35.50;1.00
13198;DHT22;6664;52.514;13.440;2023-05-07T13:55:52;30.50;1.00
13198;DHT22;6664;52.514;13.440;2023-05-07T13:58:43;27.50;1.00
13198;DHT22;6664;52.514;13.440;2023-05-07T14:01:43;30.80;1.00
13198;DHT22;6664;52.514;13.440;2023-05-07T14:04:30;27.90;1.00
13198;DHT22;6664;52.514;13.440;2023-05-07T14:07:15;26.00;1.00
13198;DHT22;6664;52.514;13.440;2023-05-07T14:10:03;23.80;1.00
13198;DHT22;6664;52.514;13.440;2023-05-07T14:12:49;23.70;1.00
13198;DHT22;6664;52.514;13.440;2023-05-07T14:15:35;22.60;1.00
13198;DHT22;6664;52.514;13.440;2023-05-07T14:18:22;24.50;1.00
13198;DHT22;6664;52.514;13.440;2023-05-07T14:21:07;24.40;1.00
13198;DHT22;6664;52.514;13.440;2023-05-07T14:23:55;24.60;1.00
13198;DHT22;6664;52.514;13.440;2023-05-07T14:26:42;23.60;1.00
13198;DHT22;6664;52.514;13.440;2023-05-07T14:29:28;22.40;1.00
13198;DHT22;6664;52.514;13.440;2023-05-07T14:32:18;21.60;1.00
13198;DHT22;6664;52.514;13.440;2023-05-07T14:35:04;22.20;1.00
13198;DHT22;6664;52.514;13.440;2023-05-07T14:37:52;26.60;1.00
13198;DHT22;6664;52.514;13.440;2023-05-07T14:40:37;23.70;1.00
13198;DHT22;6664;52.514;13.440;2023-05-07T14:43:25;22.10;1.00
13198;DHT22;6664;52.514;13.440;2023-05-07T14:46:11;20.80;1.00
13198;DHT22;6664;52.514;13.440;2023-05-07T14:48:57;20.20;1.00
13198;DHT22;6664;52.514;13.440;2023-05-07T14:51:46;22.20;1.00
13198;DHT22;6664;52.514;13.440;2023-05-07T14:54:33;25.40;1.00
13198;DHT22;6664;52.514;13.440;2023-05-07T14:57:22;26.10;1.00
13198;DHT22;6664;52.514;13.440;2023-05-07T15:00:11;27.60;1.00
13198;DHT22;6664;52.514;13.440;2023-05-07T15:03:05;26.80;1.00
13198;DHT22;6664;52.514;13.440;2023-05-07T15:05:55;26.10;1.00
13198;DHT22;6664;52.514;13.440;2023-05-07T15:08:42;24.50;1.00
13198;DHT22;6664;52.514;13.440;2023-05-07T15:11:28;24.40;1.00
13198;DHT22;6664;52.514;13.440;2023-05-07T15:14:14;26.00;1.00
13198;DHT22;6664;52.514;13.440;2023-05-07T15:17:00;25.30;1.00
13198;DHT22;6664;52.514;13.440;2023-05-07T15:19:46;24.40;1.00
13198;DHT22;6664;52.514;13.440;2023-05-07T15:22:35;23.30;1.00
13198;DHT22;6664;52.514;13.440;2023-05-07T15:25:22;22.00;1.00
13198;DHT22;6664;52.514;13.440;2023-05-07T15:28:10;22.00;1.00
13198;DHT22;6664;52.514;13.440;2023-05-07T15:30:59;21.80;1.00
13198;DHT22;6664;52.514;13.440;2023-05-07T15:33:44;23.20;1.00
13198;DHT22;6664;52.514;13.440;2023-05-07T15:36:30;22.90;1.00
13198;DHT22;6664;52.514;13.440;2023-05-07T15:39:15;22.00;1.00
13198;DHT22;6664;52.514;13.440;2023-05-07T15:42:01;21.60;1.00
13198;DHT22;6664;52.514;13.440;2023-05-07T15:44:47;23.10;1.00
13198;DHT22;6664;52.514;13.440;2023-05-07T15:47:35;24.70;1.00
13198;DHT22;6664;52.514;13.440;2023-05-07T15:50:22;23.20;1.00
13198;DHT22;6664;52.514;13.440;2023-05-07T15:53:10;21.80;1.00
13198;DHT22;6664;52.514;13.440;2023-05-07T15:55:57;22.20;1.00
13198;DHT22;6664;52.514;13.440;2023-05-07T15:58:43;21.30;1.00
13198;DHT22;6664;52.514;13.440;2023-05-07T16:01:31;20.40;1.00
13198;DHT22;6664;52.514;13.440;2023-05-07T16:04:17;20.10;1.00
13198;DHT22;6664;52.514;13.440;2023-05-07T16:07:04;21.60;1.00
13198;DHT22;6664;52.514;13.440;2023-05-07T16:09:52;22.60;1.00
13198;DHT22;6664;52.514;13.440;2023-05-07T16:12:42;22.80;1.00
13198;DHT22;6664;52.514;13.440;2023-05-07T16:15:28;22.50;1.00
13198;DHT22;6664;52.514;13.440;2023-05-07T16:18:13;25.40;1.00
13198;DHT22;6664;52.514;13.440;2023-05-07T16:21:05;24.70;1.00
13198;DHT22;6664;52.514;13.440;2023-05-07T16:23:51;24.00;1.00
13198;DHT22;6664;52.514;13.440;2023-05-07T16:26:37;22.70;1.00
13198;DHT22;6664;52.514;13.440;2023-05-07T16:29:22;21.70;1.00
13198;DHT22;6664;52.514;13.440;2023-05-07T16:32:08;20.30;1.00
13198;DHT22;6664;52.514;13.440;2023-05-07T16:34:56;19.80;1.00
13198;DHT22;6664;52.514;13.440;2023-05-07T16:37:42;19.40;1.00
13198;DHT22;6664;52.514;13.440;2023-05-07T16:40:30;19.40;1.00
13198;DHT22;6664;52.514;13.440;2023-05-07T16:43:16;19.00;1.00
13198;DHT22;6664;52.514;13.440;2023-05-07T16:46:02;18.80;1.00
13198;DHT22;6664;52.514;13.440;2023-05-07T16:48:48;18.30;1.00
13198;DHT22;6664;52.514;13.440;2023-05-07T16:51:33;17.90;1.00
13198;DHT22;6664;52.514;13.440;2023-05-07T16:54:20;17.10;1.00
13198;DHT22;6664;52.514;13.440;2023-05-07T16:57:05;16.60;1.00
13198;DHT22;6664;52.514;13.440;2023-05-07T16:59:51;16.30;1.00
13198;DHT22;6664;52.514;13.440;2023-05-07T17:02:37;16.30;1.00
13198;DHT22;6664;52.514;13.440;2023-05-07T17:05:25;16.60;1.00
13198;DHT22;6664;52.514;13.440;2023-05-07T17:08:11;17.20;1.00
13198;DHT22;6664;52.514;13.440;2023-05-07T17:10:58;17.30;1.00
13198;DHT22;6664;52.514;13.440;2023-05-07T17:13:47;17.40;1.00
13198;DHT22;6664;52.514;13.440;2023-05-07T17:16:32;18.10;1.00
13198;DHT22;6664;52.514;13.440;2023-05-07T17:19:18;17.40;1.00
13198;DHT22;6664;52.514;13.440;2023-05-07T17:22:04;16.80;1.00
13198;DHT22;6664;52.514;13.440;2023-05-07T17:24:52;16.30;1.00
13198;DHT22;6664;52.514;13.440;2023-05-07T17:27:40;15.90;1.00
13198;DHT22;6664;52.514;13.440;2023-05-07T17:30:25;15.70;1.00
13198;DHT22;6664;52.514;13.440;2023-05-07T17:33:11;15.20;1.00
13198;DHT22;6664;52.514;13.440;2023-05-07T17:36:06;15.10;1.00
13198;DHT22;6664;52.514;13.440;2023-05-07T17:38:52;15.10;1.00
13198;DHT22;6664;52.514;13.440;2023-05-07T17:41:40;15.10;1.00
13198;DHT22;6664;52.514;13.440;2023-05-07T17:44:25;15.00;1.00
13198;DHT22;6664;52.514;13.440;2023-05-07T17:47:13;14.80;1.00
13198;DHT22;6664;52.514;13.440;2023-05-07T17:49:58;14.70;1.00
13198;DHT22;6664;52.514;13.440;2023-05-07T17:52:48;14.40;1.00
13198;DHT22;6664;52.514;13.440;2023-05-07T17:55:43;14.40;1.00
13198;DHT22;6664;52.514;13.440;2023-05-07T17:58:31;14.40;1.00
13198;DHT22;6664;52.514;13.440;2023-05-07T18:01:28;14.40;1.00
13198;DHT22;6664;52.514;13.440;2023-05-07T18:04:14;14.30;1.00